Nearby METAR Reports

 

KCMA - Camarillo, California, USA
Distance from station: WSW 4mi, 7km
Updated: Tue, 19-Jan-2021 12:55am PST
Clear
Clear
 Wind from NE
Wind: NE 5 mph , 7 km/h
Temperature: 55°F , 13°C
Dew Point: 48°F , 9°C
Humidity: 77%
Barometer: 29.69 inHg , 1005.4 hPa
Clouds: Clear
Visibility: 9 miles , 14 km
2021/01/19 08:55 KCMA 190855Z AUTO 04004KT 9SM CLR 13/09 A2969 RMK AO2 SLP063 T01280094 55009
KNTD - Point Mugu Nas, California, USA
Distance from station: SSW 9mi, 15km
Updated: Tue, 19-Jan-2021 12:52am PST
Clear
Clear
 Wind from SE
Wind: SE 16 mph , 26 km/h
Temperature: 55°F , 13°C
Dew Point: 52°F , 11°C
Humidity: 88%
Barometer: 29.71 inHg , 1006.1 hPa
Clouds: Clear
Visibility: 9 miles , 14 km
2021/01/19 08:52 KNTD 190852Z AUTO 13014KT 9SM CLR 13/11 A2971 RMK AO2 PK WND 16026/0815 SLP062 T01280106 55012 VISNO N $
 
KOXR - Oxnard, California, USA
Distance from station: WSW 10mi, 16km
Updated: Tue, 19-Jan-2021 12:51am PST
Partly cloudy
Partly cloudy
 Wind from S
Wind: S 8 mph , 13 km/h, Gust: 17 mph , 28 km/h
Temperature: 54°F , 12°C
Dew Point: 52°F , 11°C
Humidity: 94%
Barometer: 29.70 inHg , 1005.8 hPa
Clouds: Partly cloudy
Visibility: 8 miles , 13 km
Cloud details: Partly cloudy 600 ft
2021/01/19 08:51 KOXR 190851Z 17007G15KT 8SM SCT006 12/11 A2970 RMK AO2 SLP055 T01220111 57010
KVNY - Van Nuys, California, USA
Distance from station: E 31mi, 50km
Updated: Tue, 19-Jan-2021 12:51am PST
Mist, Overcast
Mist, Overcast
 Wind from ESE
Wind: ESE 6 mph , 9 km/h
Temperature: 54°F , 12°C
Dew Point: 50°F , 10°C
Humidity: 88%
Barometer: 29.73 inHg , 1006.8 hPa
Summary: Mist
Clouds: Overcast
Visibility: 3 miles , 5 km
Cloud details: Overcast 600 ft
2021/01/19 08:51 KVNY 190851Z AUTO 12005KT 3SM BR OVC006 12/10 A2973 RMK AO2 SLP060 T01220100 55003
 
KWHP - La / Whiteman, California, USA
Distance from station: E 35mi, 56km
Updated: Mon, 18-Jan-2021 8:00pm PST
NOT Current
Clear
Clear
 Wind from calm
Wind: Calm
Temperature: 68°F , 20°C
Dew Point: 18°F , -8°C
Humidity: 14%
Barometer: 29.78 inHg , 1008.5 hPa
Clouds: Clear
Visibility: 10 miles , 16 km
2021/01/19 04:00 KWHP 190400Z 00000KT 10SM SKC 20/M08 A2978
KSMO - Santa Monica, California, USA
Distance from station: ESE 36mi, 58km
Updated: Tue, 19-Jan-2021 12:51am PST
Overcast
Overcast
 Wind from varies
Wind: varies 5 mph , 7 km/h
Temperature: 55°F , 13°C
Dew Point: 48°F , 9°C
Humidity: 77%
Barometer: 29.75 inHg , 1007.5 hPa
Clouds: Overcast
Visibility: 9 miles , 14 km
Cloud details: Overcast 1200 ft
2021/01/19 08:51 KSMO 190851Z AUTO VRB04KT 9SM OVC012 13/09 A2975 RMK AO2 SLP072 T01280094 55007 $
 
KBUR - Burbank, California, USA
Distance from station: E 38mi, 61km
Updated: Tue, 19-Jan-2021 12:53am PST
Mist, Overcast
Mist, Overcast
 Wind from SSE
Wind: SSE 9 mph , 15 km/h
Temperature: 52°F , 11°C
Dew Point: 48°F , 9°C
Humidity: 88%
Barometer: 29.73 inHg , 1006.8 hPa
Summary: Mist
Clouds: Overcast
Visibility: 2 miles , 3 km
Cloud details: Overcast 500 ft
2021/01/19 08:53 KBUR 190853Z 16008KT 2SM BR OVC005 11/09 A2973 RMK AO2 SLP058 T01110089 55006 $
KSDB - Sandberg, California, USA
Distance from station: NNE 40mi, 64km
Updated: Tue, 19-Jan-2021 12:53am PST
Clear
Clear
 Wind from ENE
Wind: ENE 23 mph , 37 km/h, Gust: 36 mph , 57 km/h
Temperature: 50°F , 10°C
Wind Chill: 43°F , 6°C
Dew Point: 12°F , -11°C
Humidity: 22%
Barometer: 29.81 inHg , 1009.5 hPa
Clouds: Clear
Visibility: 10 miles , 16 km
2021/01/19 08:53 KSDB 190853Z AUTO 07020G31KT 10SM CLR 10/M11 A2981 RMK AO2 PK WND 08031/0845 SLP058 T01001111 56022 $
 
KLAX - Los Angeles, California, USA
Distance from station: ESE 42mi, 68km
Updated: Tue, 19-Jan-2021 12:53am PST
Overcast
Overcast
 Wind from E
Wind: E 9 mph , 15 km/h
Temperature: 55°F , 13°C
Dew Point: 50°F , 10°C
Humidity: 82%
Barometer: 29.74 inHg , 1007.1 hPa
Clouds: Overcast
Visibility: 10 miles , 16 km
Cloud details: Overcast 1200 ft
2021/01/19 08:53 KLAX 190853Z 10008KT 10SM OVC012 13/10 A2974 RMK AO2 SLP069 T01330100 56008
KCQT - Los Angeles, California, USA
Distance from station: ESE 45mi, 73km
Updated: Tue, 19-Jan-2021 12:52am PST
Overcast
Overcast
 Wind from E
Wind: E 7 mph , 11 km/h
Temperature: 55°F , 13°C
Dew Point: 48°F , 9°C
Humidity: 77%
Barometer: 29.74 inHg , 1007.1 hPa
Clouds: Overcast
Visibility: 10 miles , 16 km
Cloud details: Overcast 1300 ft
2021/01/19 08:52 KCQT 190852Z AUTO 09006KT 10SM OVC013 13/09 A2974 RMK AO2 SLP069 T01330089 56008
 
KHHR - Hawthorne, California, USA
Distance from station: ESE 45mi, 73km
Updated: Tue, 19-Jan-2021 12:53am PST
Overcast
Overcast
 Wind from ESE
Wind: ESE 8 mph , 13 km/h
Temperature: 55°F , 13°C
Dew Point: 48°F , 9°C
Humidity: 77%
Barometer: 29.75 inHg , 1007.5 hPa
Clouds: Overcast
Visibility: 10 miles , 16 km
Cloud details: Overcast 1500 ft
2021/01/19 08:53 KHHR 190853Z AUTO 11007KT 10SM OVC015 13/09 A2975 RMK AO2 SLP072 T01330094 56008 $
KSBA - Santa Barbara, California, USA
Distance from station: WNW 49mi, 79km
Updated: Tue, 19-Jan-2021 1:15am PST
Mostly cloudy
Mostly cloudy
 Wind from E
Wind: E 15 mph , 24 km/h
Temperature: 57°F , 14°C
Dew Point: 54°F , 12°C
Humidity: 88%
Barometer: 29.68 inHg , 1005.1 hPa
Clouds: Mostly cloudy
Visibility: 7 miles , 11 km
Cloud details: Mostly cloudy 700 ft
2021/01/19 09:15 KSBA 190915Z AUTO 10013KT 7SM BKN007 14/12 A2968 RMK AO2 T01390117